Station Historical Data
Daily Summary for May 5, 2017 Units:  English    Metric   Both
« Previous Day
Next Day »
Daily Weekly Monthly Yearly Custom
  High: Low: Average:
Temperature: 49.5 °F 44.8 °F 47.4 °F
Dew Point: 48.1 °F 43.2 °F 45.9 °F
Humidity: 95% 92% 94%
Wind Speed: 10.0mph 0.0mph 2.7mph
Wind Gust: 19.0mph - -
Wind- - SSE
Pressure: 29.84 in 29.41 in -
Precipitation: 0.00 in    
Historical Graphs
 
 
Tabular Data for May 5, 2017
Time Temperature Dew Point Pressure Wind Wind Speed Wind Gust Humidity Rainfall Rate (Hourly)
00:04 46.3 °F 44.1 °F 29.84 in NE 1.0 mph 4.0 mph 92% 0.02 in
00:14 46.3 °F 44.1 °F 29.84 in NE 1.0 mph 5.0 mph 92% 0.03 in
00:19 46.3 °F 44.1 °F 29.84 in NE 2.0 mph 3.0 mph 92% 0.04 in
00:24 46.3 °F 44.1 °F 29.83 in NE 2.0 mph 5.0 mph 92% 0.04 in
00:29 46.3 °F 44.4 °F 29.83 in NE 2.0 mph 3.0 mph 93% 0.04 in
00:34 46.3 °F 44.4 °F 29.83 in NE 2.0 mph 4.0 mph 93% 0.05 in
00:39 46.3 °F 44.4 °F 29.83 in NE 2.0 mph 4.0 mph 93% 0.06 in
00:44 46.3 °F 44.4 °F 29.83 in NE 1.0 mph 3.0 mph 93% 0.05 in
00:49 46.3 °F 44.4 °F 29.83 in NE 1.0 mph 2.0 mph 93% 0.05 in
00:54 46.3 °F 44.4 °F 29.83 in NE 1.0 mph 2.0 mph 93% 0.06 in
01:00 46.3 °F 44.4 °F 29.82 in NE 1.0 mph 4.0 mph 93% 0.06 in
01:04 46.3 °F 44.4 °F 29.82 in NE 1.0 mph 4.0 mph 93% 0.06 in
01:09 46.4 °F 44.5 °F 29.82 in Calm   2.0 mph 93% 0.05 in
01:14 46.4 °F 44.5 °F 29.82 in Calm     93% 0.06 in
01:19 46.4 °F 44.5 °F 29.82 in Calm     93% 0.05 in
01:24 46.5 °F 44.6 °F 29.82 in Calm     93% 0.06 in
01:29 46.6 °F 44.7 °F 29.81 in NE 3.0 mph 4.0 mph 93% 0.08 in
01:34 46.6 °F 44.7 °F 29.81 in NE 1.0 mph 4.0 mph 93% 0.09 in
01:39 46.7 °F 44.8 °F 29.80 in NE 1.0 mph 4.0 mph 93% 0.09 in
01:44 46.7 °F 45.1 °F 29.80 in NE 1.0 mph 2.0 mph 94% 0.10 in
01:49 46.7 °F 45.1 °F 29.80 in NE 1.0 mph 2.0 mph 94% 0.11 in
01:54 46.7 °F 45.1 °F 29.80 in Calm   3.0 mph 94% 0.11 in
01:59 46.9 °F 45.3 °F 29.79 in NE 1.0 mph 2.0 mph 94% 0.11 in
02:04 46.9 °F 45.3 °F 29.79 in NE 1.0 mph 3.0 mph 94% 0.12 in
02:09 46.9 °F 45.3 °F 29.79 in NE 2.0 mph 5.0 mph 94% 0.12 in
02:14 46.8 °F 45.2 °F 29.78 in NNE 2.0 mph 5.0 mph 94% 0.12 in
02:19 46.8 °F 44.9 °F 29.78 in NNW 1.0 mph 5.0 mph 93% 0.13 in
02:24 46.7 °F 45.1 °F 29.78 in NNW 1.0 mph 3.0 mph 94% 0.13 in
02:29 46.7 °F 45.1 °F 29.78 in NNW 2.0 mph 3.0 mph 94% 0.12 in
02:34 46.7 °F 45.1 °F 29.78 in NNW 2.0 mph 3.0 mph 94% 0.10 in
02:39 46.7 °F 45.1 °F 29.77 in NNW 2.0 mph 4.0 mph 94% 0.09 in
02:44 46.8 °F 45.2 °F 29.77 in Calm   4.0 mph 94% 0.10 in
02:49 46.8 °F 45.2 °F 29.77 in NNW 3.0 mph 3.0 mph 94% 0.09 in
02:54 46.7 °F 45.1 °F 29.76 in NE 1.0 mph 3.0 mph 94% 0.09 in
02:59 46.8 °F 45.2 °F 29.77 in NNW 4.0 mph 4.0 mph 94% 0.09 in
03:04 46.8 °F 45.2 °F 29.76 in NNW 2.0 mph 4.0 mph 94% 0.08 in
03:09 46.9 °F 45.3 °F 29.75 in North 1.0 mph 4.0 mph 94% 0.09 in
03:14 47.0 °F 45.4 °F 29.75 in North 1.0 mph 3.0 mph 94% 0.08 in
03:19 47.1 °F 45.5 °F 29.75 in North 1.0 mph 2.0 mph 94% 0.08 in
03:24 47.1 °F 45.5 °F 29.75 in North 1.0 mph 3.0 mph 94% 0.07 in
03:29 47.1 °F 45.5 °F 29.75 in Calm     94% 0.08 in
03:34 47.2 °F 45.6 °F 29.75 in Calm     94% 0.08 in
03:39 47.3 °F 45.7 °F 29.75 in Calm     94% 0.07 in
03:44 47.3 °F 45.7 °F 29.74 in Calm     94% 0.06 in
03:49 47.3 °F 45.7 °F 29.74 in Calm     94% 0.06 in
03:54 47.3 °F 45.7 °F 29.74 in Calm     94% 0.06 in
03:59 47.3 °F 45.7 °F 29.74 in Calm     94% 0.05 in
04:04 47.3 °F 45.7 °F 29.74 in Calm     94% 0.05 in
04:09 47.4 °F 45.8 °F 29.74 in Calm     94% 0.04 in
04:14 47.5 °F 45.9 °F 29.74 in Calm     94% 0.04 in
04:19 47.5 °F 45.9 °F 29.73 in Calm     94% 0.03 in
04:24 47.6 °F 46.0 °F 29.73 in Calm     94% 0.03 in
04:29 47.5 °F 45.9 °F 29.73 in NNW 3.0 mph 4.0 mph 94% 0.02 in
04:34 47.5 °F 45.9 °F 29.73 in NNW 2.0 mph 5.0 mph 94% 0.02 in
04:39 47.5 °F 45.9 °F 29.73 in Calm   4.0 mph 94% 0.03 in
04:44 47.5 °F 45.9 °F 29.73 in NNW 1.0 mph 3.0 mph 94% 0.03 in
04:49 47.5 °F 45.9 °F 29.72 in Calm   5.0 mph 94% 0.03 in
04:54 47.5 °F 45.9 °F 29.72 in NNW 1.0 mph 3.0 mph 94% 0.02 in
04:59 47.5 °F 45.9 °F 29.72 in NNW 2.0 mph 2.0 mph 94% 0.03 in
05:04 47.6 °F 46.0 °F 29.72 in NNW 1.0 mph 3.0 mph 94% 0.03 in
05:09 47.6 °F 46.0 °F 29.72 in NNW 1.0 mph 3.0 mph 94% 0.03 in
05:14 47.7 °F 46.1 °F 29.72 in NNW 1.0 mph 3.0 mph 94% 0.04 in
05:19 47.7 °F 46.1 °F 29.71 in NNW 1.0 mph 3.0 mph 94% 0.05 in
05:24 47.7 °F 46.1 °F 29.71 in Calm   3.0 mph 94% 0.05 in
05:29 47.6 °F 46.0 °F 29.71 in Calm   1.0 mph 94% 0.04 in
05:34 47.7 °F 46.1 °F 29.71 in Calm     94% 0.04 in
05:39 47.8 °F 46.4 °F 29.71 in Calm     95% 0.03 in
05:44 47.8 °F 46.4 °F 29.71 in Calm   2.0 mph 95% 0.03 in
05:49 47.9 °F 46.5 °F 29.71 in NNW 3.0 mph 3.0 mph 95% 0.04 in
05:54 47.8 °F 46.4 °F 29.70 in NNW 1.0 mph 3.0 mph 95% 0.04 in
05:59 47.8 °F 46.4 °F 29.71 in Calm   3.0 mph 95% 0.04 in
06:04 47.9 °F 46.5 °F 29.71 in NNW 1.0 mph 3.0 mph 95% 0.04 in
06:09 47.9 °F 46.5 °F 29.70 in NNW 1.0 mph 4.0 mph 95% 0.05 in
06:14 47.9 °F 46.5 °F 29.70 in NNW 1.0 mph 4.0 mph 95% 0.05 in
06:19 48.0 °F 46.6 °F 29.69 in NNW 1.0 mph 3.0 mph 95% 0.05 in
06:29 48.1 °F 46.7 °F 29.69 in NNW 1.0 mph 2.0 mph 95% 0.06 in
06:34 48.1 °F 46.7 °F 29.70 in NNW 1.0 mph 4.0 mph 95% 0.06 in
06:39 48.1 °F 46.7 °F 29.70 in NNW 1.0 mph 4.0 mph 95% 0.07 in
06:44 48.1 °F 46.7 °F 29.69 in NNW 2.0 mph 3.0 mph 95% 0.08 in
06:49 47.9 °F 46.5 °F 29.69 in North 4.0 mph 4.0 mph 95% 0.10 in
06:54 47.9 °F 46.5 °F 29.69 in Calm   4.0 mph 95% 0.13 in
06:59 47.8 °F 46.4 °F 29.69 in North 2.0 mph 3.0 mph 95% 0.15 in
07:04 47.6 °F 46.2 °F 29.69 in North 2.0 mph 4.0 mph 95% 0.18 in
07:09 47.5 °F 46.1 °F 29.69 in North 2.0 mph 4.0 mph 95% 0.21 in
07:14 47.3 °F 45.9 °F 29.69 in North 2.0 mph 4.0 mph 95% 0.22 in
07:19 47.3 °F 45.9 °F 29.69 in NNE 2.0 mph 5.0 mph 95% 0.25 in
07:24 47.1 °F 45.7 °F 29.69 in NNW 2.0 mph 4.0 mph 95% 0.26 in
07:29 47.0 °F 45.6 °F 29.70 in NNW 1.0 mph 7.0 mph 95% 0.26 in
07:34 47.0 °F 45.6 °F 29.69 in North 2.0 mph 7.0 mph 95% 0.26 in
07:39 47.0 °F 45.6 °F 29.69 in North 2.0 mph 4.0 mph 95% 0.25 in
07:44 47.1 °F 45.7 °F 29.69 in North 3.0 mph 5.0 mph 95% 0.25 in
07:49 47.0 °F 45.6 °F 29.69 in NNE 1.0 mph 5.0 mph 95% 0.23 in
07:54 47.1 °F 45.7 °F 29.69 in North 1.0 mph 4.0 mph 95% 0.20 in
07:59 47.3 °F 45.9 °F 29.69 in NNE 3.0 mph 4.0 mph 95% 0.17 in
08:04 47.3 °F 45.9 °F 29.69 in NNE 2.0 mph 5.0 mph 95% 0.14 in
08:09 47.3 °F 45.9 °F 29.69 in NNE 3.0 mph 5.0 mph 95% 0.12 in
08:14 47.4 °F 46.0 °F 29.68 in NNE 3.0 mph 5.0 mph 95% 0.12 in
08:19 47.6 °F 46.2 °F 29.68 in NNE 2.0 mph 4.0 mph 95% 0.09 in
08:24 47.6 °F 46.2 °F 29.68 in North 2.0 mph 6.0 mph 95% 0.09 in
08:29 47.8 °F 46.4 °F 29.68 in NNE 4.0 mph 5.0 mph 95% 0.09 in
08:34 47.9 °F 46.5 °F 29.67 in NNE 2.0 mph 5.0 mph 95% 0.10 in
08:39 47.9 °F 46.5 °F 29.67 in NE 3.0 mph 7.0 mph 95% 0.09 in
08:44 48.0 °F 46.6 °F 29.67 in NNE 3.0 mph 5.0 mph 95% 0.10 in
08:49 48.0 °F 46.6 °F 29.67 in NNE 3.0 mph 8.0 mph 95% 0.10 in
08:54 48.1 °F 46.7 °F 29.66 in ENE 2.0 mph 7.0 mph 95% 0.10 in
08:59 48.1 °F 46.7 °F 29.66 in NNE 3.0 mph 5.0 mph 95% 0.11 in
09:04 48.2 °F 46.8 °F 29.66 in NE 3.0 mph 7.0 mph 95% 0.11 in
09:09 48.2 °F 46.8 °F 29.65 in NE 3.0 mph 7.0 mph 95% 0.09 in
09:14 48.3 °F 46.9 °F 29.65 in NE 3.0 mph 6.0 mph 95% 0.08 in
09:19 48.3 °F 46.9 °F 29.65 in NE 3.0 mph 7.0 mph 95% 0.08 in
09:24 48.3 °F 46.9 °F 29.65 in ENE 4.0 mph 8.0 mph 95% 0.08 in
09:29 48.3 °F 46.9 °F 29.65 in NE 4.0 mph 5.0 mph 95% 0.08 in
09:34 48.3 °F 46.9 °F 29.64 in NE 3.0 mph 8.0 mph 95% 0.08 in
09:39 48.3 °F 46.9 °F 29.64 in NE 3.0 mph 8.0 mph 95% 0.09 in
09:44 48.3 °F 46.9 °F 29.64 in NE 3.0 mph 8.0 mph 95% 0.09 in
09:49 48.3 °F 46.9 °F 29.64 in NE 5.0 mph 8.0 mph 95% 0.09 in
09:54 48.4 °F 47.0 °F 29.63 in NE 5.0 mph 8.0 mph 95% 0.10 in
09:59 48.5 °F 47.1 °F 29.63 in NE 3.0 mph 8.0 mph 95% 0.10 in
10:04 48.4 °F 47.0 °F 29.62 in NE 4.0 mph 10.0 mph 95% 0.10 in
10:09 48.5 °F 47.1 °F 29.62 in ENE 3.0 mph 10.0 mph 95% 0.11 in
10:14 48.5 °F 47.1 °F 29.62 in NE 5.0 mph 11.0 mph 95% 0.11 in
10:19 48.5 °F 47.1 °F 29.62 in North 2.0 mph 11.0 mph 95% 0.11 in
10:24 48.6 °F 47.2 °F 29.61 in NNE 3.0 mph 11.0 mph 95% 0.12 in
10:29 48.6 °F 47.2 °F 29.60 in NE 5.0 mph 10.0 mph 95% 0.12 in
10:34 48.7 °F 47.3 °F 29.60 in NE 4.0 mph 10.0 mph 95% 0.12 in
10:39 48.8 °F 47.4 °F 29.60 in NNE 5.0 mph 10.0 mph 95% 0.12 in
10:44 48.9 °F 47.5 °F 29.59 in NE 5.0 mph 11.0 mph 95% 0.12 in
10:49 48.9 °F 47.5 °F 29.59 in NE 5.0 mph 11.0 mph 95% 0.12 in
10:54 49.1 °F 47.7 °F 29.59 in NE 6.0 mph 13.0 mph 95% 0.11 in
10:59 49.2 °F 47.8 °F 29.58 in ENE 10.0 mph 12.0 mph 95% 0.10 in
11:04 49.4 °F 48.0 °F 29.58 in NE 6.0 mph 13.0 mph 95% 0.10 in
11:09 49.5 °F 48.1 °F 29.57 in North 7.0 mph 12.0 mph 95% 0.09 in
11:14 49.5 °F 48.1 °F 29.57 in NE 4.0 mph 13.0 mph 95% 0.08 in
11:19 49.5 °F 48.1 °F 29.57 in NE 4.0 mph 11.0 mph 95% 0.07 in
11:24 49.5 °F 47.8 °F 29.58 in NE 3.0 mph 12.0 mph 94% 0.06 in
11:29 49.3 °F 47.6 °F 29.57 in NE 4.0 mph 11.0 mph 94% 0.06 in
11:34 49.0 °F 47.3 °F 29.57 in NE 6.0 mph 12.0 mph 94% 0.06 in
11:44 48.5 °F 46.9 °F 29.57 in NE 8.0 mph 19.0 mph 94% 0.05 in
11:49 48.5 °F 46.9 °F 29.57 in NE 6.0 mph 13.0 mph 94% 0.04 in
11:54 48.3 °F 46.7 °F 29.57 in NE 8.0 mph 12.0 mph 94% 0.05 in
11:59 48.3 °F 46.7 °F 29.56 in NE 3.0 mph 11.0 mph 94% 0.05 in
12:04 48.3 °F 46.7 °F 29.56 in NE 6.0 mph 11.0 mph 94% 0.04 in
12:14 48.5 °F 46.9 °F 29.55 in NE 8.0 mph 11.0 mph 94% 0.06 in
12:19 48.4 °F 46.8 °F 29.54 in NE 5.0 mph 9.0 mph 94% 0.08 in
12:24 48.5 °F 46.9 °F 29.54 in NE 7.0 mph 10.0 mph 94% 0.08 in
12:29 48.5 °F 46.9 °F 29.54 in NE 5.0 mph 14.0 mph 94% 0.08 in
12:34 48.6 °F 47.0 °F 29.54 in NE 3.0 mph 11.0 mph 94% 0.07 in
12:39 48.6 °F 47.0 °F 29.54 in NE 6.0 mph 11.0 mph 94% 0.07 in
12:44 48.6 °F 47.0 °F 29.53 in NE 5.0 mph 11.0 mph 94% 0.06 in
12:49 48.7 °F 47.1 °F 29.53 in NE 6.0 mph 13.0 mph 94% 0.06 in
12:54 48.8 °F 47.2 °F 29.53 in NE 6.0 mph 13.0 mph 94% 0.05 in
12:59 48.8 °F 47.2 °F 29.53 in NE 6.0 mph 13.0 mph 94% 0.05 in
13:04 48.8 °F 47.2 °F 29.53 in NE 5.0 mph 16.0 mph 94% 0.05 in
13:14 48.4 °F 46.5 °F 29.52 in NNE 4.0 mph 11.0 mph 93% 0.03 in
13:19 48.5 °F 46.9 °F 29.52 in NE 3.0 mph 11.0 mph 94% 0.01 in
13:24 48.3 °F 46.4 °F 29.52 in NE 5.0 mph 12.0 mph 93% 0.02 in
13:29 48.2 °F 46.6 °F 29.52 in NE 3.0 mph 10.0 mph 94% 0.01 in
13:34 48.2 °F 46.6 °F 29.51 in NNE 4.0 mph 7.0 mph 94% 0.01 in
13:39 48.0 °F 46.1 °F 29.51 in NE 5.0 mph 16.0 mph 93% 0.01 in
13:44 48.1 °F 46.5 °F 29.51 in NE 5.0 mph 16.0 mph 94% 0.01 in
13:49 48.1 °F 46.5 °F 29.51 in NE 4.0 mph 10.0 mph 94% 0.01 in
13:54 48.1 °F 46.5 °F 29.50 in NE 4.0 mph 11.0 mph 94% 0.01 in
13:59 48.2 °F 46.6 °F 29.50 in NNE 4.0 mph 9.0 mph 94% 0.01 in
14:04 48.2 °F 46.6 °F 29.50 in NE 4.0 mph 12.0 mph 94% 0.01 in
14:09 48.4 °F 46.8 °F 29.50 in NNE 3.0 mph 8.0 mph 94% 0.01 in
14:14 48.1 °F 46.2 °F 29.49 in NNE 4.0 mph 11.0 mph 93% 0.02 in
14:19 48.0 °F 46.1 °F 29.49 in NE 5.0 mph 14.0 mph 93% 0.02 in
14:24 47.8 °F 45.9 °F 29.49 in NNE 5.0 mph 9.0 mph 93% 0.01 in
14:29 47.6 °F 45.7 °F 29.49 in NE 4.0 mph 14.0 mph 93% 0.01 in
14:34 47.7 °F 45.8 °F 29.48 in NE 3.0 mph 12.0 mph 93% 0.01 in
14:39 47.9 °F 46.0 °F 29.48 in NNE 5.0 mph 9.0 mph 93% 0.01 in
14:44 47.7 °F 45.8 °F 29.48 in NNE 5.0 mph 9.0 mph 93% 0.01 in
14:49 47.7 °F 45.8 °F 29.48 in NNE 5.0 mph 12.0 mph 93% 0.01 in
14:54 47.9 °F 46.0 °F 29.47 in NNE 3.0 mph 11.0 mph 93% 0.01 in
14:59 47.9 °F 46.3 °F 29.47 in NNE 3.0 mph 9.0 mph 94% 0.01 in
15:04 47.9 °F 46.0 °F 29.47 in NNE 4.0 mph 8.0 mph 93% 0.01 in
15:09 47.6 °F 45.7 °F 29.47 in NE 2.0 mph 10.0 mph 93% 0.01 in
15:14 47.5 °F 45.6 °F 29.47 in NNE 4.0 mph 10.0 mph 93% 0.00 in
15:19 47.3 °F 45.4 °F 29.47 in NE 4.0 mph 10.0 mph 93% 0.00 in
15:24 47.3 °F 45.4 °F 29.47 in NE 4.0 mph 10.0 mph 93% 0.00 in
15:29 47.5 °F 45.9 °F 29.47 in NE 4.0 mph 11.0 mph 94% 0.01 in
15:34 47.6 °F 46.0 °F 29.46 in NE 6.0 mph 9.0 mph 94% 0.02 in
15:39 47.3 °F 45.4 °F 29.46 in NE 5.0 mph 8.0 mph 93% 0.02 in
15:44 47.3 °F 45.4 °F 29.46 in NNE 4.0 mph 8.0 mph 93% 0.02 in
15:49 47.4 °F 45.8 °F 29.45 in NNE 4.0 mph 11.0 mph 94% 0.02 in
15:54 47.5 °F 45.9 °F 29.45 in NE 4.0 mph 12.0 mph 94% 0.02 in
15:59 47.5 °F 45.9 °F 29.45 in NE 3.0 mph 10.0 mph 94% 0.02 in
16:04 47.6 °F 46.0 °F 29.45 in NNE 5.0 mph 11.0 mph 94% 0.02 in
16:09 47.7 °F 46.1 °F 29.45 in NE 6.0 mph 6.0 mph 94% 0.02 in
16:14 47.5 °F 45.9 °F 29.44 in NNE 4.0 mph 12.0 mph 94% 0.02 in
16:19 47.4 °F 45.8 °F 29.44 in NE 5.0 mph 12.0 mph 94% 0.02 in
16:24 47.5 °F 45.9 °F 29.44 in NNE 5.0 mph 12.0 mph 94% 0.02 in
16:29 47.6 °F 46.0 °F 29.44 in NE 5.0 mph 12.0 mph 94% 0.01 in
16:34 47.6 °F 46.0 °F 29.44 in NE 3.0 mph 10.0 mph 94% 0.00 in
16:39 47.7 °F 46.1 °F 29.43 in NNE 6.0 mph 10.0 mph 94% 0.00 in
16:44 47.8 °F 45.9 °F 29.43 in NE 2.0 mph 11.0 mph 93% 0.00 in
16:49 47.8 °F 46.2 °F 29.43 in NE 5.0 mph 11.0 mph 94% 0.00 in
16:54 47.8 °F 45.9 °F 29.43 in NE 5.0 mph 11.0 mph 93% 0.00 in
16:59 47.9 °F 46.3 °F 29.43 in NE 6.0 mph 11.0 mph 94% 0.00 in
17:04 47.8 °F 45.9 °F 29.43 in NE 5.0 mph 10.0 mph 93% 0.00 in
17:09 47.8 °F 45.9 °F 29.43 in NNE 4.0 mph 10.0 mph 93% 0.00 in
17:14 47.8 °F 45.9 °F 29.43 in ENE 7.0 mph 10.0 mph 93% 0.00 in
17:19 47.7 °F 45.8 °F 29.43 in NE 6.0 mph 11.0 mph 93% 0.00 in
17:24 47.8 °F 45.9 °F 29.44 in NE 6.0 mph 8.0 mph 93% 0.00 in
17:29 47.8 °F 46.2 °F 29.44 in NE 2.0 mph 8.0 mph 94% 0.00 in
17:34 47.8 °F 46.2 °F 29.43 in NE 7.0 mph 7.0 mph 94% 0.00 in
17:39 47.8 °F 46.2 °F 29.43 in NE 2.0 mph 8.0 mph 94% 0.01 in
17:44 47.9 °F 46.3 °F 29.43 in North 5.0 mph 9.0 mph 94% 0.01 in
17:49 47.9 °F 46.3 °F 29.43 in NE 4.0 mph 9.0 mph 94% 0.01 in
17:54 48.0 °F 46.4 °F 29.42 in NE 4.0 mph 9.0 mph 94% 0.01 in
17:59 47.9 °F 46.3 °F 29.42 in NE 3.0 mph 8.0 mph 94% 0.02 in
18:04 47.9 °F 46.3 °F 29.42 in NE 4.0 mph 8.0 mph 94% 0.02 in
18:09 47.9 °F 46.3 °F 29.42 in NE 3.0 mph 8.0 mph 94% 0.03 in
18:14 48.0 °F 46.4 °F 29.42 in NNE 3.0 mph 8.0 mph 94% 0.03 in
18:19 47.9 °F 46.3 °F 29.42 in NE 2.0 mph 8.0 mph 94% 0.03 in
18:24 48.0 °F 46.4 °F 29.42 in NNE 1.0 mph 4.0 mph 94% 0.03 in
18:29 48.0 °F 46.4 °F 29.42 in NNE 2.0 mph 7.0 mph 94% 0.04 in
18:34 48.0 °F 46.4 °F 29.42 in North 1.0 mph 6.0 mph 94% 0.04 in
18:39 48.0 °F 46.4 °F 29.42 in North 2.0 mph 4.0 mph 94% 0.03 in
18:44 47.9 °F 46.3 °F 29.42 in North 1.0 mph 5.0 mph 94% 0.04 in
18:49 48.0 °F 46.4 °F 29.42 in NE 1.0 mph 5.0 mph 94% 0.04 in
18:54 48.0 °F 46.4 °F 29.42 in NNE 2.0 mph 5.0 mph 94% 0.05 in
18:59 47.9 °F 46.3 °F 29.43 in NNE 2.0 mph 5.0 mph 94% 0.05 in
19:04 47.9 °F 46.3 °F 29.43 in North 2.0 mph 5.0 mph 94% 0.06 in
19:09 47.9 °F 46.3 °F 29.43 in NNW 2.0 mph 5.0 mph 94% 0.06 in
19:14 47.9 °F 46.3 °F 29.43 in NNW 2.0 mph 4.0 mph 94% 0.07 in
19:19 47.9 °F 46.3 °F 29.43 in NNW 2.0 mph 5.0 mph 94% 0.08 in
19:24 47.8 °F 46.2 °F 29.44 in NNW 2.0 mph 5.0 mph 94% 0.08 in
19:29 47.7 °F 46.1 °F 29.44 in NNW 2.0 mph 5.0 mph 94% 0.07 in
19:34 47.7 °F 46.1 °F 29.44 in NW 2.0 mph 5.0 mph 94% 0.07 in
19:39 47.6 °F 46.0 °F 29.44 in North 3.0 mph 4.0 mph 94% 0.07 in
19:44 47.6 °F 46.0 °F 29.44 in NW 2.0 mph 4.0 mph 94% 0.06 in
19:49 47.6 °F 46.0 °F 29.44 in NNW 3.0 mph 4.0 mph 94% 0.06 in
19:54 47.6 °F 46.0 °F 29.44 in NNW 2.0 mph 5.0 mph 94% 0.05 in
19:59 47.5 °F 45.9 °F 29.44 in NNW 1.0 mph 4.0 mph 94% 0.04 in
20:04 47.4 °F 45.8 °F 29.44 in NNW 1.0 mph 4.0 mph 94% 0.03 in
20:09 47.4 °F 45.8 °F 29.44 in NNW 3.0 mph 5.0 mph 94% 0.02 in
20:14 47.3 °F 45.7 °F 29.43 in NW 2.0 mph 6.0 mph 94% 0.01 in
20:19 47.0 °F 45.4 °F 29.42 in NNW 3.0 mph 8.0 mph 94% 0.00 in
20:24 46.9 °F 45.3 °F 29.42 in NNW 3.0 mph 8.0 mph 94% 0.00 in
20:29 46.7 °F 45.1 °F 29.42 in NNW 3.0 mph 6.0 mph 94% 0.00 in
20:34 46.7 °F 45.1 °F 29.43 in North 3.0 mph 6.0 mph 94% 0.00 in
20:39 46.6 °F 45.0 °F 29.43 in North 3.0 mph 6.0 mph 94% 0.00 in
20:44 46.5 °F 44.9 °F 29.43 in Calm   6.0 mph 94% 0.00 in
20:49 46.5 °F 44.9 °F 29.43 in NNW 7.0 mph 7.0 mph 94% 0.00 in
20:54 46.5 °F 44.9 °F 29.44 in NNW 2.0 mph 8.0 mph 94% 0.00 in
20:59 46.3 °F 44.7 °F 29.43 in NNW 1.0 mph 6.0 mph 94% 0.00 in
21:04 46.4 °F 44.8 °F 29.44 in NNW 1.0 mph 3.0 mph 94% 0.00 in
21:09 46.5 °F 44.9 °F 29.44 in NNW 2.0 mph 4.0 mph 94% 0.00 in
21:14 46.5 °F 44.9 °F 29.44 in NNW 2.0 mph 4.0 mph 94% 0.00 in
21:19 46.5 °F 44.9 °F 29.44 in NNW 2.0 mph 3.0 mph 94% 0.00 in
21:24 46.5 °F 44.9 °F 29.44 in North 2.0 mph 5.0 mph 94% 0.00 in
21:29 46.5 °F 44.9 °F 29.44 in North 2.0 mph 6.0 mph 94% 0.00 in
21:34 46.4 °F 44.8 °F 29.44 in NNW 2.0 mph 6.0 mph 94% 0.00 in
21:39 46.3 °F 44.7 °F 29.44 in Calm   5.0 mph 94% 0.00 in
21:44 46.2 °F 44.6 °F 29.43 in North 2.0 mph 6.0 mph 94% 0.00 in
21:49 45.9 °F 44.3 °F 29.43 in NW 5.0 mph 10.0 mph 94% 0.00 in
21:54 45.4 °F 43.8 °F 29.43 in NW 4.0 mph 10.0 mph 94% 0.00 in
21:59 45.1 °F 43.5 °F 29.43 in NW 3.0 mph 9.0 mph 94% 0.00 in
22:04 44.9 °F 43.3 °F 29.43 in NNW 3.0 mph 9.0 mph 94% 0.00 in
22:09 44.8 °F 43.2 °F 29.43 in NNW 2.0 mph 6.0 mph 94% 0.00 in
22:14 44.8 °F 43.2 °F 29.44 in NW 2.0 mph 9.0 mph 94% 0.00 in
22:19 44.9 °F 43.3 °F 29.43 in NNW 2.0 mph 8.0 mph 94% 0.00 in
22:24 44.9 °F 43.3 °F 29.44 in West 2.0 mph 5.0 mph 94% 0.00 in
22:29 45.1 °F 43.5 °F 29.44 in NW 2.0 mph 6.0 mph 94% 0.00 in
22:34 45.1 °F 43.5 °F 29.44 in NW 2.0 mph 6.0 mph 94% 0.00 in
22:39 45.2 °F 43.6 °F 29.43 in NW 1.0 mph 6.0 mph 94% 0.01 in
22:44 45.4 °F 44.1 °F 29.43 in NE 2.0 mph 4.0 mph 95% 0.01 in
22:49 45.5 °F 44.2 °F 29.42 in NNW 1.0 mph 4.0 mph 95% 0.01 in
22:54 45.7 °F 44.4 °F 29.42 in NNW 1.0 mph 5.0 mph 95% 0.01 in
22:59 45.8 °F 44.4 °F 29.41 in North 2.0 mph 8.0 mph 95% 0.01 in
23:04 46.0 °F 44.6 °F 29.42 in North 3.0 mph 8.0 mph 95% 0.01 in
23:09 46.1 °F 44.7 °F 29.43 in North 2.0 mph 5.0 mph 95% 0.01 in
23:14 46.1 °F 44.7 °F 29.44 in NNW 1.0 mph 4.0 mph 95% 0.01 in
23:19 46.3 °F 44.9 °F 29.45 in South 1.0 mph 4.0 mph 95% 0.01 in
23:24 46.3 °F 44.9 °F 29.45 in SSE 1.0 mph 3.0 mph 95% 0.02 in
23:29 46.4 °F 45.0 °F 29.44 in WNW 3.0 mph 3.0 mph 95% 0.03 in
23:34 46.5 °F 45.1 °F 29.42 in North 4.0 mph 6.0 mph 95% 0.04 in
23:39 46.5 °F 45.1 °F 29.41 in NW 4.0 mph 8.0 mph 95% 0.04 in
23:44 46.5 °F 45.1 °F 29.41 in NNW 2.0 mph 10.0 mph 95% 0.04 in
23:49 46.5 °F 45.1 °F 29.41 in SW 4.0 mph 4.0 mph 95% 0.04 in
23:54 46.6 °F 45.2 °F 29.41 in NW 4.0 mph 5.0 mph 95% 0.04 in
23:59 46.5 °F 45.1 °F 29.41 in NW 2.0 mph 7.0 mph 95% 0.04 in
Buffalo, New York, USA
Compliments of Weather Underground - 2.5 mb